Stinson Municipal Airport
KSSF : now visible

Airfield :











YOU CAN JOIN US ON...

 
LOGIN :

Register | Disclaimer

   EN    FR    IT 

 









Legend :    VFR   Marginal VFR   IFR   Intensive IFR   Very Intensive IFR
Visi :
Ceiling :
>= 8 km
>= 3000ft
5 to 8 km
1000 to 3000 ft
1500m to 5 km
500 to 1000 ft
800 to 1500m
200 to 500 ft
< 800m
< 200 ft
Symbols :   Thunderstorms  Fog  Heavy snow  Heavy precipitations  Wind > 20 kt






- Airport Elevation : 577 ft


KSSF - Stinson Municipal

CURRENT METAR :
  • 260053Z 06007KT 10SM OVC040 23/18 A2976 RMK AO2 SLP071 T02280183 $

EXPIRED METARs :
  • 252353Z 07007KT 10SM OVC042 23/18 A2977 RMK AO2 SLP073 60001 T02330183 10261 20222 55000 $
  • 252253Z 07008G15KT 10SM OVC043 24/19 A2975 RMK AO2 SLP066 T02390189 $

TAF KSSF
Valid from the 26 at 00:00 until the 27 at 00:00 UTC


260007Z 2600/2624 07007KT P6SM BKN040 BKN120
FM260300 08008KT P6SM -SHRA VCTS SCT025CB OVC100
TEMPO 2604/2608 VRB20G30KT 3SM TSRA BR BKN010 OVC025CB
FM260900 VRB05KT P6SM SHRA VCSH BKN015 OVC025
FM261200 32005KT P6SM BKN030 OVC050
FM261600 35007KT P6SM BKN040 BKN060
KZHU FIR / North America



MET'MAP, your aeronautical weather chart ! - Copyright ORBIFLY December 2007 - Disclaimer

ORBIFLY MET'MAP TEAM :

Programming & Development : Alexandra Zaïnal
Concept & original design : Baudouin d'Aumeries
Assistance for programming : Marc-Olivier Méhu
Technical & hardware support : Manuel Goepfert

Contact : metmap@orbifly.com




SOURCES & CREDITS :

   NOAA       Earth
Advisory